createdAt,value
2018-12-15T00:04:51.641Z,19.43
2018-12-15T00:10:02.625Z,19.39
2018-12-15T00:15:16.651Z,19.38
2018-12-15T00:20:27.645Z,19.37
2018-12-15T00:25:37.863Z,19.40
2018-12-15T00:30:48.601Z,19.41
2018-12-15T00:35:59.853Z,19.44
2018-12-15T00:41:10.687Z,19.45
2018-12-15T00:46:21.365Z,19.45
2018-12-15T00:51:36.307Z,19.45
2018-12-15T00:56:48.610Z,19.43
2018-12-15T01:01:59.756Z,19.40
2018-12-15T01:07:10.507Z,19.39
2018-12-15T01:12:21.643Z,19.38
2018-12-15T01:17:32.826Z,19.37
2018-12-15T01:22:56.311Z,19.33
2018-12-15T01:28:07.740Z,19.31
2018-12-15T01:33:19.628Z,19.27
2018-12-15T01:38:31.863Z,19.23
2018-12-15T01:43:46.627Z,19.17
2018-12-15T01:48:57.250Z,19.11
2018-12-15T01:54:22.691Z,19.06
2018-12-15T01:59:34.598Z,19.01
2018-12-15T02:07:58.265Z,18.99
2018-12-15T02:13:09.042Z,19.01
2018-12-15T02:18:20.609Z,19.01
2018-12-15T02:23:33.383Z,19.00
2018-12-15T02:28:44.629Z,19.01
2018-12-15T02:33:54.573Z,19.04
2018-12-15T02:39:08.201Z,19.07
2018-12-15T02:47:31.653Z,19.07
2018-12-15T02:52:46.707Z,19.04
2018-12-15T02:59:52.351Z,19.10
2018-12-15T03:05:03.877Z,19.09
2018-12-15T03:10:27.716Z,19.06
2018-12-15T03:15:38.565Z,19.04
2018-12-15T03:21:03.384Z,19.04
2018-12-15T03:26:14.618Z,18.99
2018-12-15T03:31:46.443Z,18.97
2018-12-15T03:36:59.775Z,18.95
2018-12-15T03:42:10.613Z,18.92
2018-12-15T03:47:21.682Z,18.91
2018-12-15T03:52:35.801Z,18.91
2018-12-15T03:57:46.672Z,18.89
2018-12-15T04:03:00.629Z,18.84
2018-12-15T04:08:11.734Z,18.78
2018-12-15T04:13:26.901Z,18.77
2018-12-15T04:18:38.316Z,18.76
2018-12-15T04:27:01.680Z,18.70
2018-12-15T04:32:12.806Z,18.71
2018-12-15T04:37:23.622Z,18.70
2018-12-15T04:42:38.904Z,18.68
2018-12-15T04:47:49.629Z,18.65
2018-12-15T04:53:06.814Z,18.59
2018-12-15T04:58:18.393Z,18.59
2018-12-15T05:03:39.915Z,18.53
2018-12-15T05:08:50.883Z,18.52
2018-12-15T05:14:01.596Z,18.49
2018-12-15T05:19:12.828Z,18.51
2018-12-15T05:24:36.617Z,18.50
2018-12-15T05:29:52.527Z,18.59
2018-12-15T05:35:03.865Z,18.72
2018-12-15T05:40:17.699Z,18.80
2018-12-15T05:45:28.642Z,18.85
2018-12-15T05:50:43.611Z,18.89
2018-12-15T05:55:54.671Z,18.91
2018-12-15T06:01:35.724Z,23.27
2018-12-15T06:06:46.861Z,36.93
2018-12-15T06:12:10.834Z,41.84
2018-12-15T06:17:21.643Z,43.49
2018-12-15T06:22:34.843Z,44.19
2018-12-15T06:27:45.628Z,44.62
2018-12-15T06:32:59.616Z,44.62
2018-12-15T06:38:18.595Z,43.37
2018-12-15T06:43:30.312Z,40.70
2018-12-15T06:48:41.770Z,38.66
2018-12-15T06:53:52.883Z,37.18
2018-12-15T06:59:08.699Z,35.06
2018-12-15T07:04:19.840Z,33.12
2018-12-15T07:09:30.917Z,31.43
2018-12-15T07:14:41.721Z,29.94
2018-12-15T07:19:56.879Z,28.67
2018-12-15T07:25:07.348Z,27.57
2018-12-15T07:30:19.238Z,26.64
2018-12-15T07:35:30.706Z,25.98
2018-12-15T07:40:41.755Z,25.40
2018-12-15T07:45:52.898Z,24.78
2018-12-15T07:51:22.633Z,24.30
2018-12-15T07:56:33.644Z,25.10
2018-12-15T08:02:21.655Z,27.47
2018-12-15T08:07:32.740Z,28.98
2018-12-15T08:13:00.527Z,29.31
2018-12-15T08:18:12.544Z,28.63
2018-12-15T08:23:32.630Z,27.50
2018-12-15T08:28:52.861Z,26.52
2018-12-15T08:34:19.729Z,25.60
2018-12-15T08:39:30.905Z,24.86
2018-12-15T08:44:22.690Z,24.28
2018-12-15T08:49:34.664Z,23.74
2018-12-15T08:54:49.488Z,23.28
2018-12-15T09:00:12.456Z,26.04
2018-12-15T09:05:39.944Z,28.04
2018-12-15T09:10:51.660Z,27.45
2018-12-15T09:16:03.217Z,26.58
2018-12-15T09:21:40.942Z,25.63
2018-12-15T09:26:51.642Z,24.77
2018-12-15T09:32:06.686Z,24.18
2018-12-15T09:37:20.191Z,23.57
2018-12-15T09:42:37.802Z,23.08
2018-12-15T09:47:49.833Z,22.68
2018-12-15T09:53:16.682Z,22.26
2018-12-15T09:58:28.224Z,21.94
2018-12-15T10:03:43.687Z,21.70
2018-12-15T10:08:54.777Z,21.50
2018-12-15T10:14:06.508Z,21.33
2018-12-15T10:19:24.074Z,21.14
2018-12-15T10:27:32.277Z,20.87
2018-12-15T10:32:55.625Z,20.77
2018-12-15T10:38:07.623Z,20.63
2018-12-15T10:43:24.567Z,20.54
2018-12-15T10:48:36.312Z,20.47
2018-12-15T10:56:59.230Z,20.33
2018-12-15T11:08:01.887Z,20.15
2018-12-15T11:13:17.396Z,20.09
2018-12-15T11:18:28.813Z,20.02
2018-12-15T11:24:05.881Z,19.99
2018-12-15T11:29:16.599Z,19.96
2018-12-15T11:34:47.957Z,19.91
2018-12-15T11:40:01.552Z,19.87
2018-12-15T11:45:12.838Z,19.85
2018-12-15T11:50:23.675Z,19.79
2018-12-15T11:55:34.729Z,19.76
2018-12-15T12:01:16.010Z,20.22
2018-12-15T12:06:26.593Z,19.75
2018-12-15T12:11:48.302Z,19.68
2018-12-15T12:16:59.702Z,19.62
2018-12-15T12:22:20.795Z,19.61
2018-12-15T12:27:31.908Z,19.55
2018-12-15T12:32:46.543Z,19.52
2018-12-15T12:37:58.373Z,19.55
2018-12-15T12:43:42.442Z,19.54
2018-12-15T12:48:54.633Z,19.58
2018-12-15T12:54:31.462Z,19.60
2018-12-15T12:59:42.659Z,19.63
2018-12-15T13:04:54.426Z,21.13
2018-12-15T13:10:11.312Z,21.78
2018-12-15T13:15:22.755Z,21.94
2018-12-15T13:20:57.299Z,25.69
2018-12-15T13:26:08.809Z,36.80
2018-12-15T13:31:20.751Z,38.34
2018-12-15T13:36:33.622Z,41.30
2018-12-15T13:41:44.798Z,43.14
2018-12-15T13:47:09.561Z,44.36
2018-12-15T13:52:20.655Z,44.32
2018-12-15T13:57:31.792Z,42.33
2018-12-15T14:02:47.604Z,39.52
2018-12-15T15:35:46.647Z,32.35
2018-12-15T15:40:59.691Z,30.70
2018-12-15T15:46:10.902Z,29.08
2018-12-15T15:51:29.410Z,27.89
2018-12-15T15:56:41.312Z,26.82
2018-12-15T16:07:45.225Z,25.01
2018-12-15T16:12:55.600Z,24.39
2018-12-15T16:18:06.647Z,23.90
2018-12-15T16:23:17.771Z,23.48
2018-12-15T16:28:28.729Z,23.13
2018-12-15T16:33:39.859Z,22.83
2018-12-15T16:38:50.710Z,22.59
2018-12-15T16:44:11.900Z,22.41
2018-12-15T16:49:24.061Z,22.56
2018-12-15T16:54:52.223Z,23.42
2018-12-15T17:00:13.800Z,28.33
2018-12-15T17:05:24.860Z,38.32
2018-12-15T17:10:39.777Z,40.36
2018-12-15T17:15:51.331Z,40.68
2018-12-15T17:21:04.617Z,38.76
2018-12-15T17:26:15.985Z,36.45
2018-12-15T17:37:12.222Z,32.19
2018-12-15T17:42:22.625Z,30.67
2018-12-15T17:47:34.579Z,29.33
2018-12-15T17:53:00.031Z,28.18
2018-12-15T17:58:14.714Z,27.18
2018-12-15T18:03:29.648Z,26.28
2018-12-15T18:08:40.755Z,25.72
2018-12-15T18:13:52.470Z,25.17
2018-12-15T18:19:03.801Z,24.68
2018-12-15T18:24:14.783Z,24.28
2018-12-15T18:29:26.317Z,23.87
2018-12-15T18:34:37.784Z,23.50
2018-12-15T18:39:52.314Z,25.49
2018-12-15T18:45:04.489Z,28.45
2018-12-15T18:50:18.841Z,28.31
2018-12-15T18:55:31.761Z,27.30
2018-12-15T19:00:43.229Z,26.39
2018-12-15T19:05:55.173Z,25.53
2018-12-15T19:16:59.882Z,24.13
2018-12-15T19:22:21.563Z,23.61
2018-12-15T19:27:34.622Z,23.49
2018-12-15T19:32:46.318Z,24.40
2018-12-15T19:37:57.762Z,25.21
2018-12-15T19:43:24.787Z,25.76
2018-12-15T19:48:37.657Z,26.20
2018-12-15T19:54:14.705Z,26.53
2018-12-15T19:59:27.591Z,26.57
